createdAt,value
2023-03-31T00:00:53.784Z,9.64
2023-03-31T00:03:24.421Z,9.63
2023-03-31T00:05:58.891Z,9.64
2023-03-31T00:08:36.035Z,9.64
2023-03-31T00:11:09.740Z,9.66
2023-03-31T00:13:37.111Z,9.66
2023-03-31T00:16:08.435Z,9.63
2023-03-31T00:18:35.762Z,9.65
2023-03-31T00:21:24.871Z,9.65
2023-03-31T00:23:54.837Z,9.65
2023-03-31T00:26:23.899Z,9.72
2023-03-31T00:28:51.744Z,9.73
2023-03-31T00:31:22.387Z,9.72
2023-03-31T00:33:52.588Z,9.75
2023-03-31T00:36:21.374Z,9.74
2023-03-31T00:38:51.861Z,9.72
2023-03-31T00:41:21.173Z,9.72
2023-03-31T00:44:24.256Z,9.76
2023-03-31T00:47:07.078Z,9.78
2023-03-31T00:49:49.518Z,9.79
2023-03-31T00:52:30.538Z,9.79
2023-03-31T00:55:04.289Z,9.78
2023-03-31T00:57:39.276Z,9.75
2023-03-31T01:00:16.212Z,9.78
2023-03-31T01:02:55.842Z,9.80
2023-03-31T01:05:27.110Z,9.81
2023-03-31T01:07:56.062Z,9.88
2023-03-31T01:10:22.617Z,9.93
2023-03-31T01:12:54.107Z,9.95
2023-03-31T01:15:23.005Z,9.95
2023-03-31T01:17:51.198Z,9.96
2023-03-31T01:20:32.703Z,9.97
2023-03-31T01:23:02.037Z,9.98
2023-03-31T01:25:51.226Z,10.00
2023-03-31T01:28:30.397Z,9.99
2023-03-31T01:31:17.981Z,9.97
2023-03-31T01:34:06.224Z,9.97
2023-03-31T01:36:52.173Z,9.94
2023-03-31T01:39:18.922Z,9.92
2023-03-31T01:42:04.015Z,9.89
2023-03-31T01:44:46.578Z,9.86
2023-03-31T01:47:22.831Z,9.84
2023-03-31T01:49:57.857Z,9.81
2023-03-31T01:52:44.171Z,9.81
2023-03-31T01:55:24.524Z,9.81
2023-03-31T01:57:53.266Z,9.82
2023-03-31T02:00:30.098Z,9.83
2023-03-31T02:03:03.103Z,9.86
2023-03-31T02:05:38.298Z,9.85
2023-03-31T02:08:25.279Z,9.89
2023-03-31T02:10:54.901Z,9.89
2023-03-31T02:13:27.288Z,9.91
2023-03-31T02:16:02.461Z,9.91
2023-03-31T02:18:33.136Z,9.96
2023-03-31T02:21:01.231Z,10.00
2023-03-31T02:23:31.928Z,10.03
2023-03-31T02:26:08.460Z,10.06
2023-03-31T02:28:37.604Z,10.06
2023-03-31T02:31:23.799Z,10.08
2023-03-31T02:33:53.088Z,10.13
2023-03-31T02:36:21.543Z,10.14
2023-03-31T02:38:56.246Z,10.15
2023-03-31T02:41:23.369Z,10.14
2023-03-31T02:43:49.931Z,10.16
2023-03-31T02:46:16.421Z,10.16
2023-03-31T02:48:52.500Z,10.17
2023-03-31T02:51:46.840Z,10.16
2023-03-31T02:54:37.777Z,10.15
2023-03-31T02:57:26.519Z,10.10
2023-03-31T03:00:08.139Z,10.06
2023-03-31T03:02:55.592Z,10.04
2023-03-31T03:05:58.808Z,9.97
2023-03-31T03:08:40.467Z,9.95
2023-03-31T03:11:27.597Z,9.91
2023-03-31T03:14:12.051Z,9.88
2023-03-31T03:16:47.686Z,9.86
2023-03-31T03:19:24.607Z,9.84
2023-03-31T03:21:56.752Z,9.81
2023-03-31T03:24:23.541Z,9.79
2023-03-31T03:26:50.020Z,9.76
2023-03-31T03:29:19.001Z,9.76
2023-03-31T03:31:47.769Z,9.75
2023-03-31T03:34:18.614Z,9.73
2023-03-31T03:36:50.252Z,9.73
2023-03-31T03:39:17.176Z,9.73
2023-03-31T03:41:43.744Z,9.73
2023-03-31T03:44:10.649Z,9.74
2023-03-31T03:46:37.168Z,9.72
2023-03-31T03:49:05.876Z,9.71
2023-03-31T03:51:34.722Z,9.72
2023-03-31T03:54:01.243Z,9.71
2023-03-31T03:56:28.092Z,9.68
2023-03-31T03:58:59.318Z,9.65
2023-03-31T04:01:28.148Z,9.63
2023-03-31T04:03:54.696Z,9.61
2023-03-31T04:06:23.432Z,9.59
2023-03-31T04:08:54.445Z,9.56
2023-03-31T04:11:21.336Z,9.51
2023-03-31T04:13:50.445Z,9.47
2023-03-31T04:16:19.497Z,9.43
2023-03-31T04:18:48.784Z,9.41
2023-03-31T04:21:22.929Z,9.37
2023-03-31T04:23:58.784Z,9.34
2023-03-31T04:26:31.517Z,9.33
2023-03-31T04:29:03.918Z,9.30
2023-03-31T04:31:30.923Z,9.30
2023-03-31T04:34:06.660Z,9.30
2023-03-31T04:36:36.510Z,9.30
2023-03-31T04:39:10.737Z,9.30
2023-03-31T04:41:39.988Z,9.31
2023-03-31T04:44:06.466Z,9.32
2023-03-31T04:46:34.723Z,9.34
2023-03-31T04:49:01.504Z,9.34
2023-03-31T04:51:30.493Z,9.38
2023-03-31T04:53:56.907Z,9.38
2023-03-31T04:56:26.698Z,9.39
2023-03-31T04:58:57.985Z,9.42
2023-03-31T05:01:24.469Z,9.44
2023-03-31T05:03:53.423Z,9.48
2023-03-31T05:06:19.860Z,9.50
2023-03-31T05:08:49.029Z,9.52
2023-03-31T05:11:15.689Z,9.57
2023-03-31T05:13:44.431Z,9.58
2023-03-31T05:16:14.618Z,9.59
2023-03-31T05:18:42.781Z,9.57
2023-03-31T05:21:20.699Z,9.59
2023-03-31T05:23:47.203Z,9.58
2023-03-31T05:26:14.737Z,9.59
2023-03-31T05:28:44.795Z,9.60
2023-03-31T05:31:13.285Z,9.59
2023-03-31T05:33:42.760Z,9.60
2023-03-31T05:36:11.870Z,9.60
2023-03-31T05:38:39.321Z,9.60
2023-03-31T05:41:07.068Z,9.60
2023-03-31T05:43:33.589Z,9.61
2023-03-31T05:46:00.196Z,9.61
2023-03-31T05:48:26.764Z,9.64
2023-03-31T05:51:02.417Z,9.66
2023-03-31T05:53:31.652Z,9.65
2023-03-31T05:56:08.080Z,9.66
2023-03-31T05:58:36.379Z,9.67
2023-03-31T06:01:22.244Z,9.66
2023-03-31T06:03:49.666Z,9.67
2023-03-31T06:06:21.420Z,9.67
2023-03-31T06:08:48.847Z,9.68
2023-03-31T06:11:21.944Z,9.70
2023-03-31T06:13:49.265Z,9.73
2023-03-31T06:16:17.622Z,9.75
2023-03-31T06:18:45.027Z,9.78
2023-03-31T06:21:14.112Z,9.78
2023-03-31T06:23:40.929Z,9.79
2023-03-31T06:26:08.763Z,9.79
2023-03-31T06:28:36.601Z,9.80
2023-03-31T06:31:09.848Z,9.81
2023-03-31T06:33:36.957Z,9.84
2023-03-31T06:36:06.840Z,9.87
2023-03-31T06:38:40.556Z,9.90
2023-03-31T06:41:08.832Z,9.94
2023-03-31T06:43:37.758Z,9.99
2023-03-31T06:46:05.536Z,10.03
2023-03-31T06:48:34.695Z,10.07
2023-03-31T06:51:03.786Z,10.06
2023-03-31T06:53:30.617Z,10.04
2023-03-31T06:55:57.836Z,10.05
2023-03-31T06:58:29.078Z,10.02
2023-03-31T07:00:57.397Z,10.02
2023-03-31T07:03:25.268Z,10.01
2023-03-31T07:05:55.066Z,9.98
2023-03-31T07:08:25.002Z,9.96
2023-03-31T07:11:00.544Z,9.94
2023-03-31T07:13:30.077Z,9.93
2023-03-31T07:15:56.865Z,9.96
2023-03-31T07:18:35.048Z,9.95
2023-03-31T07:21:08.100Z,9.94
2023-03-31T07:23:36.297Z,9.93
2023-03-31T07:26:03.115Z,9.93
2023-03-31T07:28:30.357Z,9.94
2023-03-31T07:30:56.923Z,9.93
2023-03-31T07:33:25.936Z,9.92
2023-03-31T07:36:10.904Z,9.92
2023-03-31T07:38:39.542Z,9.95
2023-03-31T07:41:09.951Z,9.96
2023-03-31T07:43:36.771Z,9.96
2023-03-31T07:46:03.626Z,10.01
2023-03-31T07:48:32.632Z,10.06
2023-03-31T07:51:01.884Z,10.10
2023-03-31T07:53:28.386Z,10.10
2023-03-31T07:55:57.411Z,10.13
2023-03-31T07:58:23.900Z,10.16
2023-03-31T08:00:50.710Z,10.19
2023-03-31T08:03:17.229Z,10.21
2023-03-31T08:05:43.764Z,10.21
2023-03-31T08:08:17.638Z,10.18
2023-03-31T08:10:49.021Z,10.13
2023-03-31T08:13:18.382Z,10.05
2023-03-31T08:15:45.011Z,10.05
2023-03-31T08:18:14.051Z,10.03
2023-03-31T08:20:40.790Z,10.04
2023-03-31T08:23:09.251Z,10.05
2023-03-31T08:25:35.745Z,10.09
2023-03-31T08:28:02.615Z,10.17
2023-03-31T08:30:29.229Z,10.22
2023-03-31T08:32:56.749Z,10.27
2023-03-31T08:35:25.929Z,10.28
2023-03-31T08:37:52.438Z,10.32
2023-03-31T08:40:22.907Z,10.32
2023-03-31T08:42:52.983Z,10.31
2023-03-31T08:45:36.546Z,10.36
2023-03-31T08:48:13.927Z,10.42
2023-03-31T08:50:49.907Z,10.51
2023-03-31T08:53:29.956Z,10.67
2023-03-31T08:55:59.058Z,10.75
2023-03-31T08:58:39.928Z,10.80
2023-03-31T09:01:23.637Z,10.91
2023-03-31T09:04:12.719Z,10.95
2023-03-31T09:06:57.450Z,11.01
2023-03-31T09:09:43.125Z,11.08
2023-03-31T09:12:20.973Z,11.14
2023-03-31T09:15:01.686Z,11.10
2023-03-31T09:17:34.987Z,11.09
2023-03-31T09:20:01.464Z,11.11
2023-03-31T09:22:38.255Z,11.15
2023-03-31T09:25:13.662Z,11.22
2023-03-31T09:27:42.996Z,11.29
2023-03-31T09:30:24.232Z,11.34
2023-03-31T09:32:58.491Z,11.45
2023-03-31T09:35:26.720Z,11.58
2023-03-31T09:37:56.120Z,11.74
2023-03-31T09:40:28.546Z,11.91
2023-03-31T09:43:08.113Z,12.01
2023-03-31T09:45:37.019Z,11.97
2023-03-31T09:48:18.482Z,11.95
2023-03-31T09:50:55.400Z,11.82
2023-03-31T09:53:29.737Z,11.80
2023-03-31T09:56:01.739Z,11.79
2023-03-31T09:58:28.248Z,11.75
2023-03-31T10:01:05.255Z,11.71
2023-03-31T10:03:36.761Z,11.87
2023-03-31T10:06:11.531Z,12.06
2023-03-31T10:09:09.262Z,12.13
2023-03-31T10:11:36.659Z,12.22
2023-03-31T10:14:14.453Z,12.32
2023-03-31T10:16:48.027Z,12.30
2023-03-31T10:19:23.688Z,12.34
2023-03-31T10:22:15.487Z,12.51
2023-03-31T10:24:44.484Z,12.67
2023-03-31T10:27:31.868Z,12.73
2023-03-31T10:30:02.755Z,13.01
2023-03-31T10:32:40.954Z,13.18
2023-03-31T10:35:15.087Z,13.01
2023-03-31T10:37:41.802Z,12.90
2023-03-31T10:40:15.739Z,12.95
2023-03-31T10:42:49.617Z,12.93
2023-03-31T10:45:37.132Z,12.95
2023-03-31T10:48:17.962Z,13.02
2023-03-31T10:50:44.439Z,13.05
2023-03-31T10:53:18.101Z,12.98
2023-03-31T10:56:26.203Z,12.88
2023-03-31T10:59:10.769Z,12.77
2023-03-31T11:01:48.741Z,12.60
2023-03-31T11:04:33.767Z,12.48
2023-03-31T11:07:03.336Z,12.42
2023-03-31T11:09:44.536Z,12.37
2023-03-31T11:12:18.700Z,12.33
2023-03-31T11:15:08.894Z,12.23
2023-03-31T11:18:20.349Z,12.30
2023-03-31T11:21:05.976Z,12.28
2023-03-31T11:23:34.857Z,12.17
2023-03-31T11:26:03.671Z,12.21
2023-03-31T11:28:37.131Z,12.26
2023-03-31T11:31:10.494Z,12.23
2023-03-31T11:33:53.578Z,12.17
2023-03-31T11:36:38.674Z,12.10
2023-03-31T11:39:23.822Z,11.99
2023-03-31T11:41:54.964Z,12.02
2023-03-31T11:44:27.686Z,12.20
2023-03-31T11:46:54.129Z,12.31
2023-03-31T11:49:32.053Z,12.38
2023-03-31T11:52:17.858Z,12.26
2023-03-31T11:54:57.627Z,11.96
2023-03-31T11:57:33.551Z,11.84
2023-03-31T12:00:13.336Z,11.70
2023-03-31T12:03:08.015Z,11.56
2023-03-31T12:05:46.219Z,11.45
2023-03-31T12:08:22.606Z,11.39
2023-03-31T12:11:03.384Z,11.42
2023-03-31T12:13:58.517Z,11.38
2023-03-31T12:16:46.304Z,11.32
2023-03-31T12:19:33.308Z,11.32
2023-03-31T12:22:15.856Z,11.37
2023-03-31T12:24:48.759Z,11.32
2023-03-31T12:27:41.672Z,11.28
2023-03-31T12:30:22.989Z,11.22
2023-03-31T12:32:55.551Z,11.23
2023-03-31T12:35:29.668Z,11.29
2023-03-31T12:38:17.328Z,11.37
2023-03-31T12:40:57.728Z,11.48
2023-03-31T12:43:36.014Z,11.43
2023-03-31T12:46:30.525Z,11.36
2023-03-31T12:49:06.506Z,11.35
2023-03-31T12:52:01.329Z,11.24
2023-03-31T12:55:04.641Z,11.14
2023-03-31T12:57:33.545Z,11.23
2023-03-31T13:00:19.097Z,11.43
2023-03-31T13:02:45.728Z,11.61
2023-03-31T13:05:37.403Z,11.76
2023-03-31T13:08:08.615Z,11.74
2023-03-31T13:10:59.258Z,11.73
2023-03-31T13:13:26.767Z,11.80
2023-03-31T13:15:56.306Z,11.87
2023-03-31T13:18:23.595Z,11.93
2023-03-31T13:21:07.839Z,11.94
2023-03-31T13:23:37.723Z,11.94
2023-03-31T13:26:25.419Z,11.92
2023-03-31T13:29:16.476Z,11.86
2023-03-31T13:32:01.387Z,11.89
2023-03-31T13:34:36.259Z,11.81
2023-03-31T13:37:33.466Z,11.78
2023-03-31T13:40:13.518Z,11.76
2023-03-31T13:43:17.216Z,11.71
2023-03-31T13:46:06.319Z,11.75
2023-03-31T13:48:53.520Z,11.72
2023-03-31T13:51:31.957Z,11.70
2023-03-31T13:54:09.833Z,11.70
2023-03-31T13:56:55.065Z,11.64
2023-03-31T13:59:21.508Z,11.51
2023-03-31T14:01:56.408Z,11.46
2023-03-31T14:04:41.919Z,11.40
2023-03-31T14:07:29.347Z,11.29
2023-03-31T14:09:59.591Z,11.23
2023-03-31T14:12:37.964Z,11.20
2023-03-31T14:15:18.369Z,11.19
2023-03-31T14:17:45.405Z,11.23
2023-03-31T14:20:57.399Z,11.19
2023-03-31T14:23:28.938Z,11.21
2023-03-31T14:26:01.599Z,11.28
2023-03-31T14:28:49.701Z,11.48
2023-03-31T14:31:35.713Z,11.69
2023-03-31T14:34:26.258Z,11.79
2023-03-31T14:37:01.681Z,11.76
2023-03-31T14:39:37.749Z,11.66
2023-03-31T14:42:10.479Z,11.45
2023-03-31T14:44:40.038Z,11.29
2023-03-31T14:47:12.210Z,11.19
2023-03-31T14:49:43.618Z,11.15
2023-03-31T14:52:19.273Z,11.02
2023-03-31T14:54:49.496Z,10.98
2023-03-31T14:57:23.704Z,11.02
2023-03-31T14:59:55.020Z,11.10
2023-03-31T15:02:45.573Z,11.22
2023-03-31T15:05:26.365Z,11.37
2023-03-31T15:07:59.081Z,11.43
2023-03-31T15:10:30.299Z,11.40
2023-03-31T15:12:57.114Z,11.48
2023-03-31T15:15:23.789Z,11.47
2023-03-31T15:17:51.918Z,11.47
2023-03-31T15:20:41.087Z,11.47
2023-03-31T15:23:25.902Z,11.37
2023-03-31T15:26:00.844Z,11.29
2023-03-31T15:28:39.692Z,11.26
2023-03-31T15:31:10.541Z,11.24
2023-03-31T15:33:42.007Z,11.17
2023-03-31T15:36:11.848Z,11.12
2023-03-31T15:38:38.652Z,11.06
2023-03-31T15:41:12.503Z,11.02
2023-03-31T15:43:42.187Z,10.96
2023-03-31T15:46:17.139Z,10.92
2023-03-31T15:48:53.167Z,10.87
2023-03-31T15:51:29.988Z,10.80
2023-03-31T15:53:58.967Z,10.78
2023-03-31T15:56:43.732Z,10.72
2023-03-31T15:59:34.429Z,10.68
2023-03-31T16:02:25.437Z,10.68
2023-03-31T16:04:57.309Z,10.70
2023-03-31T16:07:29.961Z,10.68
2023-03-31T16:10:03.001Z,10.68
2023-03-31T16:12:43.067Z,10.66
2023-03-31T16:15:18.852Z,10.66
2023-03-31T16:17:59.579Z,10.63
2023-03-31T16:20:37.218Z,10.57
2023-03-31T16:23:14.758Z,10.51
2023-03-31T16:25:44.772Z,10.46
2023-03-31T16:28:22.451Z,10.41
2023-03-31T16:30:49.492Z,10.40
2023-03-31T16:33:23.352Z,10.36
2023-03-31T16:35:56.392Z,10.32
2023-03-31T16:38:27.744Z,10.26
2023-03-31T16:40:56.918Z,10.23
2023-03-31T16:43:33.903Z,10.17
2023-03-31T16:46:04.371Z,10.13
2023-03-31T16:48:34.916Z,10.12
2023-03-31T16:51:02.171Z,10.06
2023-03-31T16:53:31.549Z,10.00
2023-03-31T16:55:58.285Z,9.97
2023-03-31T16:58:29.940Z,9.97
2023-03-31T17:01:01.821Z,9.97
2023-03-31T17:03:28.592Z,10.00
2023-03-31T17:05:59.621Z,10.02
2023-03-31T17:08:27.646Z,10.06
2023-03-31T17:10:55.493Z,10.04
2023-03-31T17:13:22.020Z,10.01
2023-03-31T17:15:49.509Z,9.97
2023-03-31T17:18:17.334Z,9.93
2023-03-31T17:20:43.947Z,9.90
2023-03-31T17:23:12.785Z,9.86
2023-03-31T17:25:39.376Z,9.81
2023-03-31T17:28:06.286Z,9.79
2023-03-31T17:30:35.607Z,9.79
2023-03-31T17:33:02.255Z,9.78
2023-03-31T17:35:28.985Z,9.77
2023-03-31T17:37:58.530Z,9.74
2023-03-31T17:40:27.536Z,9.74
2023-03-31T17:42:54.608Z,9.74
2023-03-31T17:45:21.983Z,9.73
2023-03-31T17:47:48.828Z,9.73
2023-03-31T17:50:15.580Z,9.71
2023-03-31T17:52:42.124Z,9.73
2023-03-31T17:55:09.057Z,9.71
2023-03-31T17:57:40.668Z,9.69
2023-03-31T18:00:09.804Z,9.69
2023-03-31T18:02:40.679Z,9.67
2023-03-31T18:05:08.411Z,9.65
2023-03-31T18:07:38.167Z,9.66
2023-03-31T18:10:05.964Z,9.65
2023-03-31T18:12:34.406Z,9.66
2023-03-31T18:15:03.084Z,9.67
2023-03-31T18:17:31.890Z,9.67
2023-03-31T18:19:59.419Z,9.67
2023-03-31T18:22:29.158Z,9.66
2023-03-31T18:24:55.708Z,9.66
2023-03-31T18:27:23.930Z,9.65
2023-03-31T18:29:51.635Z,9.65
2023-03-31T18:32:22.903Z,9.65
2023-03-31T18:34:49.396Z,9.66
2023-03-31T18:37:15.865Z,9.66
2023-03-31T18:39:42.492Z,9.66
2023-03-31T18:42:11.544Z,9.65
2023-03-31T18:44:40.416Z,9.66
2023-03-31T18:47:07.247Z,9.64
2023-03-31T18:49:36.404Z,9.65
2023-03-31T18:52:04.361Z,9.65
2023-03-31T18:54:31.097Z,9.63
2023-03-31T18:57:01.573Z,9.62
2023-03-31T18:59:28.334Z,9.63
2023-03-31T19:01:54.853Z,9.61
2023-03-31T19:04:23.749Z,9.59
2023-03-31T19:06:50.579Z,9.61
2023-03-31T19:09:19.941Z,9.61
2023-03-31T19:11:46.420Z,9.61
2023-03-31T19:14:16.199Z,9.60
2023-03-31T19:16:44.919Z,9.60
2023-03-31T19:19:12.029Z,9.59
2023-03-31T19:21:38.774Z,9.58
2023-03-31T19:24:10.248Z,9.57
2023-03-31T19:26:39.671Z,9.56
2023-03-31T19:29:06.720Z,9.56
2023-03-31T19:31:38.306Z,9.55
2023-03-31T19:34:06.411Z,9.56
2023-03-31T19:36:32.985Z,9.54
2023-03-31T19:39:01.041Z,9.56
2023-03-31T19:41:30.536Z,9.56
2023-03-31T19:43:57.068Z,9.56
2023-03-31T19:46:25.959Z,9.55
2023-03-31T19:48:55.115Z,9.55
2023-03-31T19:51:24.185Z,9.55
2023-03-31T19:53:50.914Z,9.56
2023-03-31T19:56:25.290Z,9.54
2023-03-31T19:58:52.552Z,9.55
2023-03-31T20:01:27.192Z,9.55
2023-03-31T20:03:54.693Z,9.55
2023-03-31T20:06:25.982Z,9.54
2023-03-31T20:08:57.833Z,9.52
2023-03-31T20:11:27.547Z,9.51
2023-03-31T20:13:55.222Z,9.52
2023-03-31T20:16:24.566Z,9.54
2023-03-31T20:19:01.264Z,9.56
2023-03-31T20:21:32.914Z,9.55
2023-03-31T20:24:02.491Z,9.56
2023-03-31T20:26:30.600Z,9.57
2023-03-31T20:28:57.972Z,9.55
2023-03-31T20:31:31.034Z,9.57
2023-03-31T20:33:58.388Z,9.56
2023-03-31T20:36:31.702Z,9.55
2023-03-31T20:39:04.178Z,9.53
2023-03-31T20:41:33.749Z,9.52
2023-03-31T20:44:04.175Z,9.52
2023-03-31T20:46:30.869Z,9.52
2023-03-31T20:49:00.686Z,9.52
2023-03-31T20:51:38.706Z,9.51
2023-03-31T20:54:06.105Z,9.51
2023-03-31T20:56:38.552Z,9.51
2023-03-31T20:59:10.316Z,9.51
2023-03-31T21:01:39.321Z,9.50
2023-03-31T21:04:10.049Z,9.47
2023-03-31T21:06:42.490Z,9.46
2023-03-31T21:09:09.890Z,9.46
2023-03-31T21:11:41.436Z,9.46
2023-03-31T21:14:11.592Z,9.46
2023-03-31T21:16:38.184Z,9.47
2023-03-31T21:19:04.776Z,9.46
2023-03-31T21:21:31.573Z,9.45
2023-03-31T21:23:58.082Z,9.43
2023-03-31T21:26:25.304Z,9.42
2023-03-31T21:28:55.946Z,9.41
2023-03-31T21:31:24.771Z,9.42
2023-03-31T21:33:52.642Z,9.41
2023-03-31T21:36:22.390Z,9.39
2023-03-31T21:38:52.501Z,9.42
2023-03-31T21:41:25.221Z,9.40
2023-03-31T21:43:55.504Z,9.40
2023-03-31T21:46:26.066Z,9.39
2023-03-31T21:48:53.723Z,9.40
2023-03-31T21:51:23.945Z,9.39
2023-03-31T21:53:55.438Z,9.37
2023-03-31T21:56:24.616Z,9.37
2023-03-31T21:58:53.283Z,9.36
2023-03-31T22:01:22.904Z,9.36
2023-03-31T22:03:52.047Z,9.38
2023-03-31T22:06:18.663Z,9.34
2023-03-31T22:08:45.559Z,9.35
2023-03-31T22:11:12.806Z,9.36
2023-03-31T22:13:44.191Z,9.37
2023-03-31T22:16:16.271Z,9.37
2023-03-31T22:18:47.160Z,9.37
2023-03-31T22:21:20.696Z,9.35
2023-03-31T22:23:47.690Z,9.33
2023-03-31T22:26:17.086Z,9.35
2023-03-31T22:28:47.346Z,9.34
2023-03-31T22:31:13.942Z,9.33
2023-03-31T22:33:40.542Z,9.34
2023-03-31T22:36:07.745Z,9.33
2023-03-31T22:38:36.642Z,9.33
2023-03-31T22:41:04.208Z,9.34
2023-03-31T22:43:32.612Z,9.33
2023-03-31T22:46:04.237Z,9.33
2023-03-31T22:48:30.854Z,9.33
2023-03-31T22:50:57.308Z,9.32
2023-03-31T22:53:26.415Z,9.33
2023-03-31T22:55:55.193Z,9.33
2023-03-31T22:58:24.271Z,9.33
2023-03-31T23:00:58.143Z,9.33
2023-03-31T23:03:25.599Z,9.32
2023-03-31T23:05:54.696Z,9.33
2023-03-31T23:08:21.456Z,9.33
2023-03-31T23:11:01.756Z,9.33
2023-03-31T23:13:29.486Z,9.33
2023-03-31T23:15:56.190Z,9.34
2023-03-31T23:18:23.235Z,9.34
2023-03-31T23:20:49.717Z,9.34
2023-03-31T23:23:19.527Z,9.34
2023-03-31T23:25:46.015Z,9.35
2023-03-31T23:28:16.672Z,9.36
2023-03-31T23:30:52.089Z,9.36
2023-03-31T23:33:20.838Z,9.36
2023-03-31T23:35:52.725Z,9.36
2023-03-31T23:38:22.553Z,9.35
2023-03-31T23:40:49.127Z,9.35
2023-03-31T23:43:20.524Z,9.36
2023-03-31T23:45:47.047Z,9.37
2023-03-31T23:48:13.512Z,9.38
2023-03-31T23:50:40.132Z,9.38
2023-03-31T23:53:07.296Z,9.37
2023-03-31T23:55:34.479Z,9.38
2023-03-31T23:58:01.212Z,9.38
